Portada
METAR-TAF:

METAR-TAF

Aeroports :

Sialkot, Pakistan

latitud: 32-32N, longitud: 74-22E, altitud: 255 m

Observació

L'informe es va fer fa 20 minuts, a les 21:00 UTC
Vent calma
Temperatura 32°C
Humitat 63%
Pressió 1001 hPa
Visibilitat: 4000 m
fum,

METAR: OPST 152100Z 00000KT 4000 FU NSC 32/24 Q1001 NOSIG RH63

Hora: 02:20 (21:20 UTC)

Pronòstic

L'informe es va fer fa 4 hores i 20 minuts, a les 17:00 UTC
Pronòstic vàlid del 15 a les 18 UTC al 16 a les 24 UTC
Vent 6 kt del Nord-Est
Visibilitat: 4000 m
Escasses núvols a una alçada de 10000 ft
fum
Temporalment
l' 16 a les 08 UTC al 16 a les 14 UTC
Vent 4 kt del Sud-Oest
Visibilitat: 4000 m
Escasses núvols a una alçada de 10000 ft
calitja,

TAF: OPST 151700Z 1518/1624 05006KT 4000 FU FEW100 TX38/1610Z TN28/1600Z TEMPO 1608/1614 23004KT 4000 HZ FEW100

Observacions i pronòstics meteorològics de més de 4000 aeroports (METAR i TAF).

Les estacions disponibles són els punts grocs i vermells al mapa.

Posi el ratolí al punt desitjat per veure el nom de l'estació.

Feu clic per veure les observacions i els pronòstics meteorològics.

Per canviar el mapa: feu clic els botons verds amb una creu de color negre per apropar; al botó verd amb un guió per allunyar la imatge; o en les fletxes verdes per a mapes adjacents.


METAR-TAF: